Time;durP1;ratioP1;P1;durP2;ratioP2;P2;SDS_P1;SDS_P2;PMS_P1;PMS_P2;Temp;Humidity;BMP_temperature;BMP_pressure;BME280_temperature;BME280_humidity;BME280_pressure;Samples;Min_cycle;Max_cycle;Signal;HPM_P1;HPM_P2
2022/03/20 00:00:12;;;;;;;13.00;8.80;;;;;;;-6.04;51.14;99816.67;110162;1247;68420;-63
2022/03/20 00:03:09;;;;;;;26.80;15.70;;;;;;;-6.07;52.37;99815.75;110223;1247;69335;-61
2022/03/20 00:05:42;;;;;;;24.30;13.80;;;;;;;-6.07;51.11;99813.19;110123;1247;59744;-63
2022/03/20 00:08:12;;;;;;;15.90;9.30;;;;;;;-6.10;46.89;99813.94;110143;1248;59705;-60
2022/03/20 00:10:46;;;;;;;11.60;8.10;;;;;;;-6.12;48.01;99808.29;110051;1247;71628;-60
2022/03/20 00:13:21;;;;;;;20.50;11.80;;;;;;;-6.15;47.12;99812.10;110395;1246;68829;-62
2022/03/20 00:15:52;;;;;;;17.70;9.70;;;;;;;-6.19;50.64;99814.36;110268;1245;69361;-61
2022/03/20 00:18:23;;;;;;;23.20;15.40;;;;;;;-6.23;50.69;99814.55;109903;1247;59745;-62
2022/03/20 00:20:55;;;;;;;22.20;12.20;;;;;;;-6.30;50.79;99814.34;110115;1247;59654;-63
2022/03/20 00:23:26;;;;;;;26.40;14.50;;;;;;;-6.35;50.18;99821.60;110154;1247;71345;-66
2022/03/20 00:25:57;;;;;;;16.00;10.70;;;;;;;-6.40;46.88;99816.02;110462;1246;68558;-65
2022/03/20 00:28:26;;;;;;;26.40;15.30;;;;;;;-6.43;50.59;99816.09;110054;1247;68651;-64
2022/03/20 00:30:57;;;;;;;22.30;13.90;;;;;;;-6.46;54.20;99819.23;110108;1247;59733;-65
2022/03/20 00:33:26;;;;;;;;;;;;;;;-6.48;53.35;99817.13;110186;1247;60056;-65
2022/03/20 00:35:56;;;;;;;10.70;6.70;;;;;;;-6.51;53.34;99814.81;110072;1248;71507;-62
2022/03/20 00:38:26;;;;;;;21.60;14.20;;;;;;;-6.55;50.74;99815.71;110139;1247;67817;-61
2022/03/20 00:40:56;;;;;;;20.40;12.50;;;;;;;-6.57;51.88;99809.85;110139;1246;68684;-61
2022/03/20 00:43:26;;;;;;;16.00;8.70;;;;;;;-6.58;52.43;99810.48;110358;1247;59719;-62
2022/03/20 00:45:56;;;;;;;;;;;;;;;-6.59;52.11;99804.02;110420;1246;59688;-61
2022/03/20 00:48:26;;;;;;;11.40;8.30;;;;;;;-6.61;52.00;99807.33;110239;1247;70748;-62
2022/03/20 00:51:03;;;;;;;10.70;7.20;;;;;;;-6.66;50.15;99805.48;110398;1247;67802;-61
2022/03/20 00:53:36;;;;;;;10.50;6.60;;;;;;;-6.70;49.93;99805.04;110454;1247;68252;-60
2022/03/20 00:56:07;;;;;;;13.40;9.80;;;;;;;-6.72;49.03;99802.74;110106;1247;59704;-61
2022/03/20 00:58:37;;;;;;;15.40;9.80;;;;;;;-6.71;53.02;99801.94;110369;1244;59696;-61
2022/03/20 01:01:09;;;;;;;24.60;15.20;;;;;;;-6.75;53.53;99799.94;110177;1245;71501;-65
2022/03/20 01:03:41;;;;;;;19.90;11.50;;;;;;;-6.84;52.47;99799.95;110157;1247;68167;-66
2022/03/20 01:06:11;;;;;;;17.00;10.80;;;;;;;-6.93;55.86;99798.13;110219;1247;68619;-63
2022/03/20 01:08:42;;;;;;;19.20;12.10;;;;;;;-6.99;56.33;99797.23;110142;1247;59754;-67
2022/03/20 01:11:12;;;;;;;24.10;14.80;;;;;;;-7.04;57.72;99795.86;110200;1247;59701;-67
2022/03/20 01:13:43;;;;;;;17.70;12.30;;;;;;;-7.07;57.21;99792.38;110411;1247;71547;-64
2022/03/20 01:16:13;;;;;;;;;;;;;;;-7.11;57.11;99791.55;110454;1245;67765;-63
2022/03/20 01:18:43;;;;;;;14.40;9.50;;;;;;;-7.18;53.65;99789.95;110418;1247;68602;-61
2022/03/20 01:21:12;;;;;;;14.00;9.50;;;;;;;-7.26;53.31;99793.55;110187;1247;59694;-64
2022/03/20 01:23:43;;;;;;;22.50;12.40;;;;;;;-7.32;54.45;99793.34;110020;1246;59655;-64
2022/03/20 01:26:13;;;;;;;20.50;12.40;;;;;;;-7.36;55.28;99789.98;110117;1247;70748;-64
2022/03/20 01:28:42;;;;;;;18.30;12.00;;;;;;;-7.33;57.16;99788.92;110214;1247;68612;-66
2022/03/20 01:31:12;;;;;;;13.10;9.10;;;;;;;-7.37;52.75;99787.90;110178;1245;68706;-59
2022/03/20 01:33:42;;;;;;;22.80;14.90;;;;;;;-7.42;55.52;99790.95;110235;1247;59655;-60
2022/03/20 01:36:12;;;;;;;;;;;;;;;-7.41;57.07;99789.61;110165;1247;59714;-60
2022/03/20 01:38:42;;;;;;;20.80;12.50;;;;;;;-7.41;56.12;99790.80;110386;1247;71357;-62
2022/03/20 01:41:12;;;;;;;18.50;12.00;;;;;;;-7.40;55.32;99792.18;110100;1246;67965;-61
2022/03/20 01:43:50;;;;;;;;;;;;;;;-7.41;56.26;99789.63;109668;1247;69227;-65
2022/03/20 01:46:20;;;;;;;13.60;8.20;;;;;;;-7.44;51.86;99789.69;109967;1248;60074;-61
2022/03/20 01:48:51;;;;;;;17.60;7.90;;;;;;;-7.48;52.83;99788.71;110191;1247;59624;-61
2022/03/20 01:54:13;;;;;;;11.40;6.40;;;;;;;-7.47;52.47;99784.52;110259;1247;68378;-65
2022/03/20 01:56:49;;;;;;;18.30;12.00;;;;;;;-7.45;57.33;99783.05;110190;1246;68644;-66
2022/03/20 01:59:19;;;;;;;11.70;7.20;;;;;;;-7.46;54.75;99786.06;110331;1245;59734;-62
2022/03/20 02:01:49;;;;;;;14.00;8.50;;;;;;;-7.48;53.34;99782.77;110095;1247;59684;-64
2022/03/20 02:04:19;;;;;;;14.00;9.30;;;;;;;-7.49;54.45;99785.27;110197;1247;69765;-65
2022/03/20 02:06:49;;;;;;;15.20;9.20;;;;;;;-7.47;54.46;99789.42;110375;1245;68541;-63
2022/03/20 02:09:19;;;;;;;15.60;9.40;;;;;;;-7.43;54.54;99788.35;110172;1247;68472;-61
2022/03/20 02:11:54;;;;;;;13.90;8.70;;;;;;;-7.39;54.87;99790.88;110203;1247;59827;-61
2022/03/20 02:14:26;;;;;;;15.10;10.00;;;;;;;-7.31;54.33;99788.31;110194;1247;59675;-61
2022/03/20 02:16:56;;;;;;;12.70;7.00;;;;;;;-7.27;54.86;99792.15;110270;1246;70580;-61
2022/03/20 02:19:27;;;;;;;19.90;10.50;;;;;;;-7.29;53.39;99791.61;110069;1247;67673;-60
2022/03/20 02:21:57;;;;;;;18.10;11.60;;;;;;;-7.32;54.30;99788.09;110398;1244;68550;-60
2022/03/20 02:24:41;;;;;;;10.00;7.40;;;;;;;-7.39;54.80;99788.34;110136;1246;59750;-63
2022/03/20 02:27:20;;;;;;;22.00;13.00;;;;;;;-7.51;55.64;99784.70;110096;1248;59745;-61
2022/03/20 02:29:57;;;;;;;20.50;11.70;;;;;;;-7.61;57.65;99784.67;110160;1247;70564;-61
2022/03/20 02:32:31;;;;;;;13.50;8.10;;;;;;;-7.71;58.67;99789.05;110061;1247;68278;-62
2022/03/20 02:35:05;;;;;;;10.40;6.10;;;;;;;-7.78;59.78;99794.68;110256;1245;68612;-61
2022/03/20 02:37:38;;;;;;;13.00;8.50;;;;;;;-7.87;59.20;99797.23;110092;1247;59664;-60
2022/03/20 02:40:08;;;;;;;19.40;12.20;;;;;;;-7.95;60.62;99796.73;110115;1246;59715;-62
2022/03/20 02:42:42;;;;;;;18.50;11.20;;;;;;;-8.04;59.92;99796.39;110054;1247;70022;-58
2022/03/20 02:45:14;;;;;;;16.80;11.70;;;;;;;-8.14;60.49;99795.16;110086;1247;68567;-63
2022/03/20 02:47:45;;;;;;;21.20;12.30;;;;;;;-8.22;58.34;99801.77;110275;1246;68444;-64
2022/03/20 02:50:16;;;;;;;19.00;10.50;;;;;;;-8.29;59.90;99807.06;110402;1247;59754;-65
2022/03/20 02:52:49;;;;;;;17.40;9.40;;;;;;;-8.33;56.04;99809.13;110104;1247;59722;-63
2022/03/20 02:55:21;;;;;;;12.80;8.10;;;;;;;-8.34;54.70;99809.93;109671;1247;734765;-63
2022/03/20 02:57:53;;;;;;;11.70;8.30;;;;;;;-8.33;59.47;99810.95;110093;1247;67911;-61
2022/03/20 03:00:28;;;;;;;19.20;11.50;;;;;;;-8.35;58.49;99806.68;109973;1247;69954;-66
2022/03/20 03:03:00;;;;;;;19.50;12.90;;;;;;;-8.37;55.65;99796.61;110143;1246;59752;-64
2022/03/20 03:05:31;;;;;;;19.30;10.50;;;;;;;-8.45;59.74;99798.02;110092;1247;59745;-65
2022/03/20 03:11:01;;;;;;;21.10;12.10;;;;;;;-8.67;62.87;99801.63;110153;1247;67469;-62
2022/03/20 03:13:34;;;;;;;18.50;12.60;;;;;;;-8.77;63.46;99801.27;109917;1247;67573;-64
2022/03/20 03:16:08;;;;;;;15.10;9.80;;;;;;;-8.81;63.20;99800.75;110274;1244;59799;-63
2022/03/20 03:18:39;;;;;;;15.50;9.30;;;;;;;-8.81;64.25;99798.55;110125;1247;59715;-62
2022/03/20 03:21:11;;;;;;;13.10;8.60;;;;;;;-8.78;64.18;99798.35;110172;1247;71430;-62
2022/03/20 03:23:42;;;;;;;15.10;9.00;;;;;;;-8.80;60.93;99800.10;110205;1247;67780;-63
2022/03/20 03:26:13;;;;;;;15.30;6.40;;;;;;;-8.84;58.81;99798.42;110107;1246;68522;-63
2022/03/20 03:28:43;;;;;;;16.40;10.90;;;;;;;-8.85;60.55;99801.08;110137;1247;59700;-65
2022/03/20 03:31:14;;;;;;;21.70;12.40;;;;;;;-8.86;62.63;99800.70;110125;1246;59667;-64
2022/03/20 03:36:32;;;;;;;17.40;10.10;;;;;;;-9.01;64.89;99797.53;110104;1246;68457;-64
2022/03/20 03:39:03;;;;;;;9.90;6.70;;;;;;;-9.06;63.96;99799.84;110193;1247;68648;-64
2022/03/20 03:41:36;;;;;;;17.20;9.70;;;;;;;-9.07;59.54;99801.81;110350;1245;59710;-64
2022/03/20 03:44:07;;;;;;;15.90;9.50;;;;;;;-9.07;61.16;99793.89;110160;1247;59685;-65
2022/03/20 03:46:37;;;;;;;23.50;13.90;;;;;;;-9.05;66.16;99796.54;110147;1245;70668;-66
2022/03/20 03:49:07;;;;;;;14.40;8.60;;;;;;;-9.01;65.47;99793.65;110301;1247;68548;-62
2022/03/20 03:51:38;;;;;;;21.90;13.80;;;;;;;-8.99;65.55;99793.22;110051;1247;69432;-62
2022/03/20 03:54:08;;;;;;;16.70;11.60;;;;;;;-8.96;65.94;99798.74;109997;1247;59761;-62
2022/03/20 03:56:40;;;;;;;18.50;12.70;;;;;;;-8.96;65.47;99799.42;110253;1246;59795;-63
2022/03/20 03:59:11;;;;;;;18.30;10.90;;;;;;;-8.92;65.59;99800.25;110243;1245;71097;-65
2022/03/20 04:01:41;;;;;;;23.70;13.70;;;;;;;-8.91;60.31;99801.83;110321;1246;68440;-63
2022/03/20 04:04:11;;;;;;;19.40;10.70;;;;;;;-8.86;64.50;99807.47;110136;1246;69386;-63
2022/03/20 04:06:42;;;;;;;20.40;12.20;;;;;;;-8.87;64.67;99811.83;110068;1247;59713;-63
2022/03/20 04:09:12;;;;;;;15.40;9.90;;;;;;;-8.86;65.76;99809.16;110385;1246;59653;-64
2022/03/20 04:11:42;;;;;;;12.10;8.60;;;;;;;-8.85;65.85;99804.12;110415;1244;70510;-64
2022/03/20 04:14:13;;;;;;;20.90;12.40;;;;;;;-8.84;65.45;99808.73;110088;1247;66960;-66
2022/03/20 04:16:43;;;;;;;;;;;;;;;-8.82;66.07;99816.06;110067;1247;68631;-64
2022/03/20 04:19:13;;;;;;;14.00;8.60;;;;;;;-8.83;65.96;99811.84;110154;1247;59669;-60
2022/03/20 04:21:43;;;;;;;17.10;10.30;;;;;;;-8.85;65.94;99815.80;110066;1247;60185;-61
2022/03/20 04:24:13;;;;;;;19.60;12.10;;;;;;;-8.85;65.64;99818.64;110122;1247;70400;-62
2022/03/20 04:26:44;;;;;;;20.20;12.30;;;;;;;-8.85;65.86;99815.80;109934;1247;68159;-60
2022/03/20 04:29:14;;;;;;;18.00;12.20;;;;;;;-8.87;65.02;99813.49;110099;1247;68631;-62
2022/03/20 04:31:44;;;;;;;11.50;7.00;;;;;;;-8.88;65.98;99812.95;110074;1247;59742;-64
2022/03/20 04:34:14;;;;;;;13.50;8.80;;;;;;;-8.89;63.79;99811.23;110128;1247;59682;-66
2022/03/20 04:36:44;;;;;;;13.70;10.30;;;;;;;-8.88;65.71;99817.16;110037;1248;71520;-63
2022/03/20 04:39:13;;;;;;;29.20;15.00;;;;;;;-8.87;66.35;99821.10;109998;1247;68662;-64
2022/03/20 04:41:45;;;;;;;20.60;13.70;;;;;;;-8.85;66.58;99827.97;109981;1247;68465;-65
2022/03/20 04:44:15;;;;;;;15.60;8.80;;;;;;;-8.83;66.27;99825.66;110079;1246;59752;-62
2022/03/20 04:46:45;;;;;;;11.70;7.80;;;;;;;-8.80;66.71;99832.59;110156;1247;59685;-61
2022/03/20 05:00:51;;;;;;;16.70;9.00;;;;;;;-8.35;64.25;99837.12;110033;1247;60050;-63
2022/03/20 05:03:21;;;;;;;18.60;11.90;;;;;;;-8.26;64.57;99837.46;110137;1247;70760;-63
2022/03/20 05:05:52;;;;;;;19.50;10.70;;;;;;;-8.17;65.04;99835.63;110064;1247;68641;-64
2022/03/20 05:08:21;;;;;;;11.10;7.30;;;;;;;-8.07;63.46;99841.13;110076;1247;69300;-63
2022/03/20 05:13:39;;;;;;;13.80;8.80;;;;;;;-7.78;63.29;99856.50;109935;1247;59661;-65
2022/03/20 05:16:10;;;;;;;11.90;8.90;;;;;;;-7.68;62.67;99855.86;110172;1246;70782;-65
2022/03/20 05:18:39;;;;;;;24.20;13.80;;;;;;;-7.57;63.54;99862.55;110093;1247;67661;-60
2022/03/20 05:21:10;;;;;;;22.80;13.70;;;;;;;-7.44;62.91;99861.34;110134;1246;67552;-64
2022/03/20 05:23:40;;;;;;;24.10;15.40;;;;;;;-7.28;60.27;99859.91;110115;1247;60110;-63
2022/03/20 05:26:09;;;;;;;23.00;14.20;;;;;;;-7.14;60.13;99857.89;110125;1246;59667;-62
2022/03/20 05:28:39;;;;;;;23.90;14.70;;;;;;;-7.07;61.68;99856.95;110070;1247;70833;-64
2022/03/20 05:31:11;;;;;;;22.20;14.10;;;;;;;-7.05;62.64;99856.68;110051;1247;68444;-60
2022/03/20 05:33:43;;;;;;;22.40;15.10;;;;;;;-6.93;61.90;99859.98;110043;1247;69642;-65
2022/03/20 05:36:12;;;;;;;22.70;15.00;;;;;;;-6.70;59.90;99860.65;110094;1247;59717;-63
2022/03/20 05:38:42;;;;;;;17.20;10.10;;;;;;;-6.36;59.56;99862.14;110018;1247;59654;-63
2022/03/20 05:43:59;;;;;;;22.70;14.20;;;;;;;-5.77;58.75;99861.66;110153;1247;68683;-65
2022/03/20 05:46:28;;;;;;;21.20;13.50;;;;;;;-5.43;58.37;99866.79;110190;1247;68807;-62
2022/03/20 05:48:58;;;;;;;46.50;25.50;;;;;;;-5.01;58.05;99869.70;110106;1247;59743;-64
2022/03/20 05:51:27;;;;;;;39.30;22.90;;;;;;;-4.74;56.86;99869.09;110028;1247;59662;-65
2022/03/20 05:53:57;;;;;;;37.80;22.20;;;;;;;-4.58;56.01;99869.36;110096;1247;70764;-63
2022/03/20 05:59:16;;;;;;;98.60;49.90;;;;;;;-4.84;56.71;99877.84;110194;1246;68843;-64
2022/03/20 06:01:45;;;;;;;76.80;41.70;;;;;;;-4.95;57.42;99877.52;109992;1247;59814;-62
2022/03/20 06:04:15;;;;;;;66.20;34.90;;;;;;;-4.87;57.09;99878.95;110140;1247;59741;-61
2022/03/20 06:06:44;;;;;;;63.10;32.30;;;;;;;-4.76;56.42;99880.61;110164;1247;70780;-61
2022/03/20 06:09:15;;;;;;;54.00;28.30;;;;;;;-4.70;55.70;99879.59;110077;1247;68609;-60
2022/03/20 06:11:44;;;;;;;60.00;29.00;;;;;;;-4.60;55.51;99875.79;110106;1246;68826;-61
2022/03/20 06:14:13;;;;;;;58.60;31.00;;;;;;;-4.44;55.30;99874.69;110125;1246;59761;-60
2022/03/20 06:16:48;;;;;;;43.40;21.80;;;;;;;-4.21;55.27;99871.86;110227;1247;59690;-61
2022/03/20 06:19:17;;;;;;;52.00;27.00;;;;;;;-3.90;54.63;99864.30;110103;1244;70836;-65
2022/03/20 06:21:47;;;;;;;50.10;27.10;;;;;;;-3.65;54.28;99861.66;110161;1245;67927;-62
2022/03/20 06:24:16;;;;;;;48.70;26.10;;;;;;;-3.34;53.66;99862.33;110111;1245;68967;-62
2022/03/20 06:26:45;;;;;;;47.10;25.30;;;;;;;-3.03;52.84;99856.16;110405;1245;59751;-66
2022/03/20 06:29:15;;;;;;;43.50;24.40;;;;;;;-2.74;52.37;99858.28;109813;1247;59818;-61
2022/03/20 06:31:49;;;;;;;56.40;31.90;;;;;;;-2.40;51.82;99878.39;110118;1246;70753;-63
2022/03/20 06:34:18;;;;;;;41.30;22.20;;;;;;;-2.01;50.23;99886.76;110359;1244;66806;-60
2022/03/20 06:36:48;;;;;;;33.10;19.80;;;;;;;-1.61;50.24;99880.58;110012;1247;69483;-60
2022/03/20 06:39:17;;;;;;;44.70;26.60;;;;;;;-1.16;47.77;99874.21;110247;1245;59694;-59
2022/03/20 06:41:47;;;;;;;36.40;21.40;;;;;;;-0.84;47.63;99878.90;110127;1245;60063;-61
2022/03/20 06:44:17;;;;;;;31.00;19.70;;;;;;;-0.59;45.03;99878.84;110289;1244;70721;-63
2022/03/20 06:46:46;;;;;;;32.60;19.40;;;;;;;-0.30;44.33;99882.08;110384;1244;68640;-65
2022/03/20 06:49:15;;;;;;;34.70;20.00;;;;;;;0.01;44.23;99889.40;110466;1244;69540;-64
2022/03/20 06:51:44;;;;;;;31.90;19.10;;;;;;;0.21;43.39;99887.86;110093;1245;59748;-64
2022/03/20 06:54:13;;;;;;;34.50;21.70;;;;;;;0.47;44.02;99884.12;110059;1247;59690;-61
2022/03/20 06:56:42;;;;;;;31.10;20.50;;;;;;;0.65;42.40;99877.04;110230;1245;72232;-61
2022/03/20 06:59:14;;;;;;;32.10;20.10;;;;;;;0.78;41.86;99875.40;110182;1247;67916;-61
2022/03/20 07:01:44;;;;;;;26.00;16.30;;;;;;;0.83;41.18;99870.09;110345;1245;69520;-61
2022/03/20 07:04:14;;;;;;;26.00;16.10;;;;;;;1.11;40.03;99862.85;110292;1244;59760;-65
2022/03/20 07:06:43;;;;;;;18.40;12.70;;;;;;;1.43;39.55;99854.89;110076;1247;59719;-64
2022/03/20 07:09:12;;;;;;;14.10;10.80;;;;;;;1.74;38.60;99850.33;110302;1244;71569;-63
2022/03/20 07:11:41;;;;;;;16.70;11.60;;;;;;;1.71;36.53;99851.34;110426;1245;67858;-67
2022/03/20 07:14:10;;;;;;;15.60;10.90;;;;;;;1.77;35.85;99849.13;110115;1244;68652;-65
2022/03/20 07:16:42;;;;;;;14.40;10.70;;;;;;;1.91;35.28;99851.36;110086;1247;60228;-64
2022/03/20 07:19:16;;;;;;;16.00;11.20;;;;;;;2.02;35.23;99859.98;110089;1247;59667;-62
2022/03/20 07:21:46;;;;;;;17.00;11.30;;;;;;;1.89;35.28;99855.51;110096;1247;71177;-61
2022/03/20 07:24:15;;;;;;;13.70;9.50;;;;;;;2.14;35.03;99848.46;109948;1247;68717;-62
2022/03/20 07:29:33;;;;;;;14.60;10.50;;;;;;;2.93;34.20;99846.60;110156;1247;59754;-64
2022/03/20 07:32:06;;;;;;;15.60;12.20;;;;;;;3.49;34.14;99841.71;110103;1247;59595;-66
2022/03/20 07:34:37;;;;;;;14.90;10.20;;;;;;;3.56;32.69;99845.13;110155;1247;70935;-64
2022/03/20 07:37:07;;;;;;;16.40;11.40;;;;;;;3.69;31.94;99843.66;110164;1247;67705;-60
2022/03/20 07:39:40;;;;;;;13.30;8.60;;;;;;;4.02;31.60;99840.49;110040;1246;67801;-64
2022/03/20 07:42:09;;;;;;;13.80;10.00;;;;;;;4.68;31.20;99837.48;109928;1247;59709;-63
2022/03/20 07:44:44;;;;;;;14.10;11.10;;;;;;;5.10;30.29;99834.40;110162;1246;59707;-63
2022/03/20 07:47:23;;;;;;;15.40;10.60;;;;;;;5.23;28.85;99847.05;110045;1247;72065;-63
2022/03/20 07:49:53;;;;;;;12.80;7.70;;;;;;;5.42;29.47;99849.91;110133;1247;69414;-65
2022/03/20 07:52:22;;;;;;;13.00;10.00;;;;;;;5.76;27.69;99853.09;110155;1245;69522;-65
2022/03/20 07:54:51;;;;;;;16.10;11.50;;;;;;;6.14;27.59;99850.27;109718;1247;59748;-63
2022/03/20 07:57:21;;;;;;;14.50;11.90;;;;;;;6.11;27.34;99848.39;110076;1247;59729;-66
2022/03/20 07:59:50;;;;;;;15.20;11.00;;;;;;;6.01;27.63;99851.16;110093;1247;71433;-64
2022/03/20 08:02:19;;;;;;;13.10;9.60;;;;;;;6.23;27.55;99851.70;110124;1246;68766;-65
2022/03/20 08:04:51;;;;;;;13.60;10.80;;;;;;;6.72;26.07;99850.49;110005;1245;68854;-61
2022/03/20 08:07:21;;;;;;;10.30;8.20;;;;;;;7.56;25.21;99845.51;110132;1245;59650;-63
2022/03/20 08:09:50;;;;;;;11.70;8.80;;;;;;;8.01;24.19;99847.78;110034;1247;59624;-63
2022/03/20 08:12:19;;;;;;;13.70;10.40;;;;;;;8.62;24.37;99843.33;110118;1247;71747;-61
2022/03/20 08:15:03;;;;;;;11.70;9.80;;;;;;;8.75;23.56;99841.27;110104;1247;67839;-62
2022/03/20 08:17:41;;;;;;;14.60;11.00;;;;;;;9.14;23.62;99831.82;110157;1247;69440;-65
2022/03/20 08:20:11;;;;;;;17.60;13.10;;;;;;;9.09;22.84;99825.51;110314;1244;59672;-64
2022/03/20 08:22:42;;;;;;;14.90;12.40;;;;;;;9.24;22.48;99821.46;110336;1244;59642;-63
2022/03/20 08:25:11;;;;;;;15.90;10.50;;;;;;;9.14;22.08;99819.83;110327;1244;71561;-63
2022/03/20 08:27:45;;;;;;;11.60;8.50;;;;;;;9.06;22.03;99820.74;110359;1244;67767;-63
2022/03/20 08:30:15;;;;;;;10.50;7.40;;;;;;;9.42;22.37;99813.23;110288;1244;69443;-66
2022/03/20 08:32:48;;;;;;;10.20;8.80;;;;;;;9.83;21.14;99813.55;110145;1246;60176;-62
2022/03/20 08:35:17;;;;;;;13.10;9.90;;;;;;;10.22;21.35;99818.57;110044;1245;59751;-63
2022/03/20 08:37:48;;;;;;;13.50;10.50;;;;;;;10.55;21.67;99817.84;110314;1244;71277;-63
2022/03/20 08:40:20;;;;;;;11.50;9.40;;;;;;;10.89;20.83;99817.31;110384;1244;68710;-66
2022/03/20 08:42:53;;;;;;;10.80;9.70;;;;;;;11.27;20.59;99811.75;110075;1247;69746;-63
2022/03/20 08:45:26;;;;;;;11.50;9.60;;;;;;;11.18;19.74;99811.71;110064;1247;59674;-64
2022/03/20 08:47:56;;;;;;;11.40;9.10;;;;;;;11.44;20.91;99813.72;110286;1244;59748;-65
2022/03/20 08:50:25;;;;;;;13.20;10.10;;;;;;;11.66;19.79;99818.29;110149;1246;71667;-65
2022/03/20 08:52:54;;;;;;;13.90;10.60;;;;;;;11.57;19.93;99807.45;110325;1244;68635;-62
2022/03/20 08:55:25;;;;;;;11.70;10.20;;;;;;;11.66;19.76;99802.55;110215;1244;69986;-62
2022/03/20 08:57:54;;;;;;;10.40;9.20;;;;;;;12.06;19.17;99799.58;110181;1244;59710;-63
2022/03/20 09:00:24;;;;;;;;;;;;;;;11.98;18.96;99797.13;110184;1247;59677;-65
2022/03/20 09:02:53;;;;;;;10.90;8.00;;;;;;;11.39;18.42;99794.34;110154;1246;71538;-66
2022/03/20 09:05:22;;;;;;;9.40;7.80;;;;;;;11.51;18.29;99792.85;110139;1247;67784;-65
2022/03/20 09:07:53;;;;;;;11.60;10.10;;;;;;;11.77;18.69;99793.23;110079;1247;69994;-67
2022/03/20 09:10:24;;;;;;;12.80;8.90;;;;;;;11.47;19.14;99794.39;110135;1247;59641;-65
2022/03/20 09:12:55;;;;;;;9.80;7.10;;;;;;;11.57;18.45;99795.95;110127;1247;59684;-65
2022/03/20 09:15:25;;;;;;;8.40;7.50;;;;;;;11.80;18.22;99794.15;109939;1248;69718;-63
2022/03/20 09:20:43;;;;;;;9.80;7.30;;;;;;;11.33;18.43;99790.94;110268;1244;69408;-65
2022/03/20 09:23:14;;;;;;;9.80;7.70;;;;;;;11.42;18.87;99790.21;110387;1244;59729;-66
2022/03/20 09:25:43;;;;;;;11.00;9.20;;;;;;;11.30;18.94;99785.80;110438;1244;59705;-67
2022/03/20 09:28:13;;;;;;;11.10;7.70;;;;;;;11.82;18.30;99786.56;110200;1244;71472;-64
2022/03/20 09:30:42;;;;;;;;;;;;;;;12.55;18.12;99772.34;110369;1244;68843;-67
2022/03/20 09:33:11;;;;;;;8.90;7.30;;;;;;;13.28;17.87;99768.38;110350;1245;69399;-64
2022/03/20 09:35:40;;;;;;;11.60;9.40;;;;;;;13.45;16.87;99760.90;110140;1244;59766;-66
2022/03/20 09:38:09;;;;;;;10.40;8.40;;;;;;;13.77;17.10;99759.42;110422;1244;59664;-65
2022/03/20 09:40:40;;;;;;;10.10;8.80;;;;;;;14.02;16.74;99756.93;110400;1244;70804;-63
2022/03/20 09:43:09;;;;;;;10.00;8.90;;;;;;;14.16;16.25;99753.60;110414;1244;67841;-68
2022/03/20 09:45:38;;;;;;;14.30;11.70;;;;;;;14.86;16.98;99752.27;110387;1244;69218;-63
2022/03/20 09:48:08;;;;;;;11.90;9.90;;;;;;;14.24;15.50;99747.73;110341;1244;59670;-65
2022/03/20 09:50:38;;;;;;;11.30;8.70;;;;;;;14.62;15.58;99739.85;110466;1244;59654;-64
2022/03/20 09:53:07;;;;;;;11.60;9.00;;;;;;;14.21;15.61;99741.73;110380;1243;71588;-62
2022/03/20 09:55:36;;;;;;;10.80;9.70;;;;;;;14.24;16.07;99747.26;110376;1244;68560;-62
2022/03/20 09:58:06;;;;;;;11.00;9.40;;;;;;;14.22;15.90;99746.97;110126;1246;68370;-63
2022/03/20 10:00:35;;;;;;;11.00;9.40;;;;;;;15.29;15.71;99742.92;110422;1244;59703;-68
2022/03/20 10:03:17;;;;;;;12.40;9.60;;;;;;;15.28;15.63;99737.16;110405;1244;59636;-65
2022/03/20 10:06:16;;;;;;;12.30;10.80;;;;;;;16.07;14.64;99739.55;110495;1244;70930;-64
2022/03/20 10:09:07;;;;;;;12.90;10.40;;;;;;;15.33;14.53;99732.48;110442;1244;67873;-61
2022/03/20 10:11:49;;;;;;;12.10;9.90;;;;;;;16.07;14.19;99731.13;110439;1244;69564;-64
2022/03/20 10:14:20;;;;;;;13.10;10.80;;;;;;;16.38;14.17;99726.32;110123;1246;59747;-63
2022/03/20 10:16:55;;;;;;;13.50;10.20;;;;;;;16.28;13.91;99723.70;110383;1244;59678;-63
2022/03/20 10:19:24;;;;;;;11.50;10.30;;;;;;;15.84;14.10;99725.42;110144;1247;72120;-63
2022/03/20 10:22:07;;;;;;;11.10;9.60;;;;;;;15.86;13.89;99720.20;110435;1244;67581;-65
2022/03/20 10:24:50;;;;;;;12.60;10.50;;;;;;;15.52;13.89;99715.66;110452;1244;67843;-63
2022/03/20 10:27:19;;;;;;;13.80;10.80;;;;;;;15.07;14.17;99711.42;110159;1246;59744;-62
2022/03/20 10:29:54;;;;;;;12.00;10.20;;;;;;;14.02;14.96;99700.83;110466;1243;59734;-65
2022/03/20 10:32:24;;;;;;;12.40;10.00;;;;;;;13.90;15.02;99694.77;110345;1244;70060;-61
2022/03/20 10:35:04;;;;;;;10.50;8.70;;;;;;;13.75;15.57;99692.91;110192;1244;67814;-62
2022/03/20 10:37:55;;;;;;;11.80;10.50;;;;;;;13.85;15.47;99689.92;110039;1247;69682;-64
2022/03/20 10:40:27;;;;;;;11.80;10.20;;;;;;;14.55;14.79;99681.42;110386;1244;59714;-61
2022/03/20 10:43:12;;;;;;;12.00;10.40;;;;;;;13.80;15.20;99685.63;110408;1243;59690;-62
2022/03/20 10:46:00;;;;;;;16.20;10.70;;;;;;;14.07;15.41;99679.19;110110;1244;71613;-63
2022/03/20 10:48:43;;;;;;;12.20;10.20;;;;;;;14.12;15.80;99679.30;110387;1244;67346;-64
2022/03/20 10:51:12;;;;;;;9.80;8.20;;;;;;;13.71;16.52;99682.23;110337;1244;69613;-66
2022/03/20 10:53:58;;;;;;;9.20;8.10;;;;;;;14.47;15.07;99681.53;110169;1247;59755;-66
2022/03/20 10:56:27;;;;;;;10.90;8.80;;;;;;;15.28;14.87;99682.00;110142;1245;59732;-65
2022/03/20 10:58:57;;;;;;;9.00;8.00;;;;;;;16.05;14.27;99676.39;110354;1244;72153;-65
2022/03/20 11:01:44;;;;;;;;;;;;;;;16.20;13.92;99676.02;110173;1244;68586;-64
2022/03/20 11:04:15;;;;;;;9.20;8.20;;;;;;;16.43;13.42;99668.64;110366;1242;68609;-65
2022/03/20 11:06:47;;;;;;;10.60;9.50;;;;;;;16.68;13.08;99666.58;110170;1245;59697;-67
2022/03/20 11:09:16;;;;;;;11.00;9.00;;;;;;;15.66;13.39;99668.37;110248;1244;59731;-67
2022/03/20 11:11:51;;;;;;;10.40;9.10;;;;;;;15.46;14.48;99667.48;110457;1244;71587;-63
2022/03/20 11:14:24;;;;;;;10.70;9.50;;;;;;;15.25;14.35;99663.38;110387;1244;68589;-63
2022/03/20 11:17:06;;;;;;;12.20;9.40;;;;;;;15.56;14.43;99660.57;110079;1247;69317;-62
2022/03/20 11:19:39;;;;;;;10.10;8.70;;;;;;;15.33;15.23;99659.81;110046;1247;59734;-64
2022/03/20 11:22:12;;;;;;;12.30;9.60;;;;;;;16.27;14.39;99652.73;110090;1246;59667;-63
2022/03/20 11:24:43;;;;;;;12.30;11.00;;;;;;;16.32;14.89;99653.96;110074;1247;71618;-64
2022/03/20 11:27:18;;;;;;;12.30;9.70;;;;;;;16.61;14.36;99648.90;110177;1247;67754;-63
2022/03/20 11:29:55;;;;;;;12.10;8.90;;;;;;;16.23;14.17;99645.23;110109;1246;69429;-67
2022/03/20 11:32:25;;;;;;;11.20;7.80;;;;;;;16.57;13.69;99638.01;109926;1248;59616;-62
2022/03/20 11:34:55;;;;;;;10.90;9.80;;;;;;;17.02;13.13;99638.36;110159;1246;59635;-68
2022/03/20 11:37:44;;;;;;;9.10;8.00;;;;;;;16.66;13.15;99629.72;110083;1247;71550;-67
2022/03/20 11:40:19;;;;;;;9.90;8.50;;;;;;;16.55;13.37;99627.57;110131;1247;66882;-65
2022/03/20 11:42:50;;;;;;;10.40;8.20;;;;;;;15.83;13.29;99626.61;110146;1247;69377;-64
2022/03/20 11:45:20;;;;;;;11.90;8.40;;;;;;;16.31;13.30;99615.88;110124;1247;59821;-64
2022/03/20 11:47:52;;;;;;;12.80;9.50;;;;;;;17.08;13.26;99620.17;110111;1247;59691;-64
2022/03/20 11:50:39;;;;;;;10.40;8.40;;;;;;;17.23;13.10;99613.96;110104;1247;71713;-65
2022/03/20 11:53:09;;;;;;;9.20;8.20;;;;;;;17.82;13.19;99605.27;110047;1247;68554;-62
2022/03/20 11:55:53;;;;;;;9.60;8.60;;;;;;;17.54;13.45;99604.68;110050;1247;68499;-64
2022/03/20 11:58:24;;;;;;;8.70;7.70;;;;;;;18.39;12.66;99600.27;109846;1247;60093;-64
2022/03/20 12:01:04;;;;;;;8.70;7.80;;;;;;;17.92;13.55;99597.02;110171;1247;59772;-65
2022/03/20 12:03:56;;;;;;;10.50;8.40;;;;;;;17.94;12.40;99591.87;110057;1247;70833;-63
2022/03/20 12:06:34;;;;;;;12.20;8.90;;;;;;;18.15;12.94;99586.77;110139;1247;68793;-66
2022/03/20 12:09:36;;;;;;;10.70;9.40;;;;;;;18.89;12.38;99586.47;110081;1246;69759;-67
2022/03/20 12:12:05;;;;;;;12.30;10.40;;;;;;;18.28;12.45;99580.02;110045;1246;59723;-64